createdAt,value
2019-05-22T00:00:57.851Z,5.20
2019-05-22T00:03:27.126Z,3.40
2019-05-22T00:05:56.235Z,3.90
2019-05-22T00:08:23.785Z,6.83
2019-05-22T00:10:53.665Z,2.80
2019-05-22T00:13:24.145Z,2.70
2019-05-22T00:15:51.509Z,4.50
2019-05-22T00:18:19.353Z,3.10
2019-05-22T00:20:48.828Z,4.67
2019-05-22T00:23:18.140Z,3.80
2019-05-22T00:25:47.044Z,4.83
2019-05-22T00:28:15.400Z,4.20
2019-05-22T00:30:44.962Z,2.90
2019-05-22T00:33:14.171Z,3.10
2019-05-22T00:35:43.211Z,3.10
2019-05-22T00:38:11.548Z,2.73
2019-05-22T00:40:55.378Z,4.33
2019-05-22T00:43:33.685Z,3.13
2019-05-22T00:46:03.202Z,6.47
2019-05-22T00:48:31.895Z,3.40
2019-05-22T00:51:03.876Z,3.60
2019-05-22T00:53:32.844Z,3.67
2019-05-22T00:56:05.364Z,4.70
2019-05-22T00:58:37.439Z,3.53
2019-05-22T01:01:12.814Z,3.10
2019-05-22T01:03:40.145Z,5.00
2019-05-22T01:06:09.306Z,2.97
2019-05-22T01:08:37.940Z,3.40
2019-05-22T01:11:07.062Z,5.70
2019-05-22T01:13:35.989Z,3.90
2019-05-22T01:16:05.078Z,3.10
2019-05-22T01:18:32.782Z,3.83
2019-05-22T01:21:00.094Z,4.23
2019-05-22T01:23:29.472Z,3.63
2019-05-22T01:25:57.676Z,4.10
2019-05-22T01:28:25.852Z,3.60
2019-05-22T01:30:55.326Z,4.00
2019-05-22T01:33:25.302Z,7.10
2019-05-22T01:36:01.520Z,2.50
2019-05-22T01:38:29.820Z,2.60
2019-05-22T01:41:01.262Z,2.70
2019-05-22T01:43:29.581Z,3.83
2019-05-22T01:45:58.653Z,2.87
2019-05-22T01:48:31.608Z,2.23
2019-05-22T01:51:00.628Z,3.83
2019-05-22T01:53:30.408Z,4.10
2019-05-22T01:56:03.006Z,2.53
2019-05-22T01:58:31.537Z,3.30
2019-05-22T02:01:00.318Z,2.33
2019-05-22T02:03:29.665Z,2.40
2019-05-22T02:05:57.996Z,2.10
2019-05-22T02:08:27.010Z,6.33
2019-05-22T02:10:56.049Z,7.30
2019-05-22T02:13:26.457Z,2.73
2019-05-22T02:15:54.293Z,6.07
2019-05-22T02:18:23.002Z,2.30
2019-05-22T02:20:50.357Z,6.80
2019-05-22T02:23:18.888Z,3.40
2019-05-22T02:25:46.901Z,2.43
2019-05-22T02:28:14.809Z,4.73
2019-05-22T02:30:43.847Z,2.47
2019-05-22T02:33:12.929Z,3.70
2019-05-22T02:35:41.877Z,4.40
2019-05-22T02:38:09.290Z,2.70
2019-05-22T02:40:37.605Z,2.47
2019-05-22T02:43:06.705Z,2.60
2019-05-22T02:45:34.049Z,2.83
2019-05-22T02:48:02.365Z,3.00
2019-05-22T02:50:30.422Z,2.03
2019-05-22T02:52:58.926Z,2.40
2019-05-22T02:55:27.006Z,1.80
2019-05-22T02:57:54.956Z,1.80
2019-05-22T03:00:24.839Z,3.70
2019-05-22T03:02:53.828Z,2.23
2019-05-22T03:05:22.726Z,2.73
2019-05-22T03:07:50.266Z,1.77
2019-05-22T03:10:20.429Z,2.60
2019-05-22T03:12:49.946Z,4.50
2019-05-22T03:15:17.951Z,3.20
2019-05-22T03:17:45.299Z,2.60
2019-05-22T03:20:16.079Z,4.37
2019-05-22T03:23:02.826Z,3.50
2019-05-22T03:25:33.157Z,4.50
2019-05-22T03:28:01.158Z,2.70
2019-05-22T03:30:34.312Z,3.50
2019-05-22T03:33:02.346Z,2.60
2019-05-22T03:35:31.287Z,3.10
2019-05-22T03:37:59.664Z,2.60
2019-05-22T03:40:28.714Z,2.60
2019-05-22T03:42:55.990Z,2.70
2019-05-22T03:45:23.513Z,3.00
2019-05-22T03:47:51.750Z,2.27
2019-05-22T03:50:19.756Z,2.30
2019-05-22T03:52:47.031Z,5.70
2019-05-22T03:55:14.777Z,2.53
2019-05-22T03:57:42.116Z,2.10
2019-05-22T04:00:12.640Z,6.23
2019-05-22T04:02:39.993Z,2.80
2019-05-22T04:05:09.795Z,1.93
2019-05-22T04:07:38.173Z,2.03
2019-05-22T04:10:06.057Z,2.63
2019-05-22T04:12:33.388Z,2.90
2019-05-22T04:15:01.333Z,2.63
2019-05-22T04:17:30.158Z,4.23
2019-05-22T04:19:57.966Z,6.53
2019-05-22T04:22:25.303Z,2.60
2019-05-22T04:24:52.685Z,5.10
2019-05-22T04:27:20.125Z,4.10
2019-05-22T04:29:48.401Z,3.60
2019-05-22T04:32:17.363Z,2.60
2019-05-22T04:34:44.910Z,3.70
2019-05-22T04:37:13.321Z,4.00
2019-05-22T04:39:41.265Z,2.80
2019-05-22T04:42:10.188Z,4.87
2019-05-22T04:44:39.921Z,3.40
2019-05-22T04:47:07.858Z,2.60
2019-05-22T04:49:35.165Z,5.60
2019-05-22T04:52:04.102Z,4.23
2019-05-22T04:54:31.398Z,5.13
2019-05-22T04:56:58.771Z,4.67
2019-05-22T04:59:26.450Z,4.50
2019-05-22T05:01:54.025Z,5.63
2019-05-22T05:04:21.302Z,4.50
2019-05-22T05:06:49.672Z,4.60
2019-05-22T05:09:17.320Z,5.90
2019-05-22T05:11:44.831Z,5.80
2019-05-22T05:14:12.169Z,4.90
2019-05-22T05:16:39.529Z,4.80
2019-05-22T05:19:06.866Z,5.57
2019-05-22T05:21:34.217Z,5.70
2019-05-22T05:24:01.801Z,6.00
2019-05-22T05:26:30.777Z,4.83
2019-05-22T05:28:58.514Z,4.93
2019-05-22T05:31:26.237Z,9.10
2019-05-22T05:33:55.050Z,4.17
2019-05-22T05:36:22.597Z,13.07
2019-05-22T05:38:49.978Z,9.93
2019-05-22T05:41:18.885Z,9.67
2019-05-22T05:43:46.534Z,4.10
2019-05-22T05:46:15.333Z,8.70
2019-05-22T05:48:42.781Z,4.77
2019-05-22T05:51:12.162Z,9.33
2019-05-22T05:53:56.637Z,5.17
2019-05-22T05:56:25.053Z,10.50
2019-05-22T05:58:52.332Z,4.57
2019-05-22T06:01:25.663Z,5.93
2019-05-22T06:03:53.580Z,6.90
2019-05-22T06:06:23.653Z,4.70
2019-05-22T06:08:51.201Z,5.70
2019-05-22T06:11:32.695Z,7.90
2019-05-22T06:14:00.841Z,4.13
2019-05-22T06:16:36.752Z,8.00
2019-05-22T06:19:04.470Z,9.67
2019-05-22T06:21:32.013Z,8.30
2019-05-22T06:24:02.469Z,12.47
2019-05-22T06:26:31.584Z,4.40
2019-05-22T06:28:59.489Z,7.70
2019-05-22T06:31:43.685Z,8.23
2019-05-22T06:34:11.230Z,15.10
2019-05-22T06:36:40.105Z,7.23
2019-05-22T06:39:09.848Z,13.30
2019-05-22T06:41:38.483Z,8.00
2019-05-22T06:44:24.785Z,9.20
2019-05-22T06:46:52.217Z,6.53
2019-05-22T06:49:33.217Z,8.73
2019-05-22T06:52:00.730Z,9.03
2019-05-22T06:54:28.139Z,15.77
2019-05-22T06:56:55.497Z,10.73
2019-05-22T06:59:22.849Z,15.60
2019-05-22T07:01:50.118Z,10.83
2019-05-22T07:04:17.748Z,12.40
2019-05-22T07:06:45.096Z,18.77
2019-05-22T07:09:12.750Z,8.00
2019-05-22T07:11:41.000Z,15.43
2019-05-22T07:14:09.274Z,6.53
2019-05-22T07:16:37.241Z,13.10
2019-05-22T07:19:07.449Z,9.87
2019-05-22T07:21:35.017Z,5.60
2019-05-22T07:24:03.621Z,6.30
2019-05-22T07:26:31.185Z,6.70
2019-05-22T07:29:02.732Z,7.00
2019-05-22T07:31:27.627Z,8.93
2019-05-22T07:33:55.406Z,6.60
2019-05-22T07:36:23.888Z,6.13
2019-05-22T07:38:51.216Z,4.13
2019-05-22T07:41:18.653Z,2.13
2019-05-22T07:43:46.122Z,5.50
2019-05-22T07:46:13.464Z,12.80
2019-05-22T07:48:40.728Z,4.23
2019-05-22T07:51:08.102Z,1.00
2019-05-22T07:53:35.539Z,7.73
2019-05-22T07:56:04.766Z,0.83
2019-05-22T07:58:32.851Z,0.50
2019-05-22T08:01:01.506Z,1.83
2019-05-22T08:03:30.863Z,0.50
2019-05-22T08:05:58.357Z,0.50
2019-05-22T08:08:27.569Z,2.20
2019-05-22T08:10:55.876Z,0.90
2019-05-22T08:13:24.222Z,0.50
2019-05-22T08:15:51.633Z,1.77
2019-05-22T08:18:19.374Z,0.80
2019-05-22T08:20:46.739Z,0.60
2019-05-22T08:23:14.917Z,0.50
2019-05-22T08:25:42.195Z,0.40
2019-05-22T08:28:12.388Z,0.60
2019-05-22T08:30:40.018Z,1.13
2019-05-22T08:33:09.397Z,0.70
2019-05-22T08:35:37.125Z,0.50
2019-05-22T08:38:06.696Z,0.60
2019-05-22T08:40:34.433Z,2.13
2019-05-22T08:43:01.847Z,1.13
2019-05-22T08:45:29.630Z,0.63
2019-05-22T08:47:57.892Z,0.50
2019-05-22T08:50:27.058Z,1.00
2019-05-22T08:52:54.334Z,0.80
2019-05-22T08:55:22.277Z,5.77
2019-05-22T08:57:49.764Z,0.40
2019-05-22T09:00:22.057Z,0.40
2019-05-22T09:02:49.693Z,0.60
2019-05-22T09:05:21.131Z,2.83
2019-05-22T09:07:47.254Z,0.40
2019-05-22T09:10:15.126Z,1.33
2019-05-22T09:12:42.434Z,0.40
2019-05-22T09:15:10.037Z,1.73
2019-05-22T09:17:37.675Z,1.90
2019-05-22T09:20:06.076Z,0.90
2019-05-22T09:22:40.898Z,0.93
2019-05-22T09:25:05.037Z,0.50
2019-05-22T09:27:32.413Z,2.80
2019-05-22T09:29:59.768Z,0.50
2019-05-22T09:32:27.061Z,0.50
2019-05-22T09:34:54.750Z,0.50
2019-05-22T09:37:22.228Z,0.47
2019-05-22T09:39:49.493Z,0.90
2019-05-22T09:42:17.237Z,0.40
2019-05-22T09:44:44.612Z,0.50
2019-05-22T09:47:12.117Z,1.93
2019-05-22T09:49:39.960Z,0.40
2019-05-22T09:52:08.283Z,0.90
2019-05-22T09:54:36.010Z,0.40
2019-05-22T09:57:05.129Z,0.60
2019-05-22T09:59:32.942Z,0.60
2019-05-22T10:02:00.285Z,0.50
2019-05-22T10:04:27.764Z,0.67
2019-05-22T10:06:55.314Z,0.60
2019-05-22T10:09:22.825Z,2.10
2019-05-22T10:11:50.187Z,0.60
2019-05-22T10:14:18.190Z,0.60
2019-05-22T10:16:45.874Z,0.47
2019-05-22T10:19:13.325Z,0.50
2019-05-22T10:21:41.266Z,0.50
2019-05-22T10:24:08.874Z,1.30
2019-05-22T10:26:36.628Z,0.43
2019-05-22T10:29:03.893Z,0.43
2019-05-22T10:31:31.506Z,1.10
2019-05-22T10:33:59.642Z,1.20
2019-05-22T10:36:27.197Z,0.60
2019-05-22T10:38:54.500Z,1.23
2019-05-22T10:41:21.957Z,1.80
2019-05-22T10:43:49.465Z,0.50
2019-05-22T10:46:16.736Z,3.73
2019-05-22T10:48:44.694Z,0.50
2019-05-22T10:51:11.988Z,0.60
2019-05-22T10:53:39.684Z,1.00
2019-05-22T10:56:07.245Z,0.60
2019-05-22T10:58:34.573Z,0.60
2019-05-22T11:01:01.998Z,1.47
2019-05-22T11:03:29.479Z,0.77
2019-05-22T11:06:06.927Z,0.67
2019-05-22T11:08:30.398Z,2.93
2019-05-22T11:10:55.043Z,5.13
2019-05-22T11:13:22.351Z,0.70
2019-05-22T11:15:49.620Z,0.80
2019-05-22T11:18:16.909Z,0.60
2019-05-22T11:20:44.252Z,2.10
2019-05-22T11:23:11.802Z,1.17
2019-05-22T11:25:39.260Z,2.50
2019-05-22T11:28:06.602Z,3.47
2019-05-22T11:30:34.405Z,1.00
2019-05-22T11:33:01.905Z,0.60
2019-05-22T11:35:30.613Z,0.60
2019-05-22T11:37:57.950Z,0.63
2019-05-22T11:40:25.789Z,1.20
2019-05-22T11:42:53.496Z,1.73
2019-05-22T11:45:21.401Z,0.80
2019-05-22T11:47:49.172Z,0.67
2019-05-22T11:50:16.534Z,0.60
2019-05-22T11:52:44.064Z,5.13
2019-05-22T11:55:12.394Z,0.60
2019-05-22T11:57:41.207Z,0.60
2019-05-22T12:00:09.481Z,0.83
2019-05-22T12:02:38.727Z,2.90
2019-05-22T12:05:07.328Z,0.80
2019-05-22T12:07:35.169Z,0.83
2019-05-22T12:10:02.645Z,2.30
2019-05-22T12:12:30.093Z,1.63
2019-05-22T12:14:57.496Z,1.33
2019-05-22T12:17:37.637Z,0.70
2019-05-22T12:19:54.705Z,1.33
2019-05-22T12:22:22.069Z,3.47
2019-05-22T12:24:49.563Z,1.30
2019-05-22T12:27:16.893Z,1.33
2019-05-22T12:29:44.334Z,1.63
2019-05-22T12:32:12.793Z,0.93
2019-05-22T12:34:40.056Z,0.80
2019-05-22T12:37:08.397Z,0.70
2019-05-22T12:39:37.234Z,0.90
2019-05-22T12:42:05.857Z,1.00
2019-05-22T12:44:33.538Z,1.13
2019-05-22T12:47:01.961Z,1.00
2019-05-22T12:49:30.258Z,0.80
2019-05-22T12:51:58.102Z,1.20
2019-05-22T12:54:25.782Z,0.97
2019-05-22T12:56:53.117Z,0.90
2019-05-22T12:59:20.953Z,1.83
2019-05-22T13:01:49.438Z,13.80
2019-05-22T13:04:16.756Z,3.13
2019-05-22T13:06:44.099Z,1.77
2019-05-22T13:09:11.841Z,1.27
2019-05-22T13:11:39.758Z,1.00
2019-05-22T13:14:07.263Z,0.80
2019-05-22T13:16:35.016Z,1.00
2019-05-22T13:19:02.353Z,1.27
2019-05-22T13:21:30.784Z,0.73
2019-05-22T13:24:00.433Z,0.80
2019-05-22T13:26:28.340Z,1.10
2019-05-22T13:28:56.475Z,1.03
2019-05-22T13:31:23.782Z,1.20
2019-05-22T13:33:52.640Z,1.00
2019-05-22T13:36:21.085Z,1.03
2019-05-22T13:38:48.994Z,1.70
2019-05-22T13:41:16.337Z,0.93
2019-05-22T13:43:44.227Z,1.13
2019-05-22T13:46:11.787Z,1.20
2019-05-22T13:48:39.201Z,1.10
2019-05-22T13:51:07.202Z,3.43
2019-05-22T13:53:34.748Z,6.53
2019-05-22T13:56:02.180Z,1.63
2019-05-22T13:58:29.858Z,1.63
2019-05-22T14:00:57.421Z,1.33
2019-05-22T14:03:25.062Z,1.40
2019-05-22T14:05:54.290Z,3.53
2019-05-22T14:08:23.257Z,2.03
2019-05-22T14:10:51.762Z,1.23
2019-05-22T14:13:19.989Z,1.20
2019-05-22T14:15:52.610Z,2.70
2019-05-22T14:18:16.757Z,1.17
2019-05-22T14:20:44.146Z,2.93
2019-05-22T14:23:11.739Z,3.93
2019-05-22T14:25:39.145Z,3.00
2019-05-22T14:28:07.697Z,1.10
2019-05-22T14:30:34.978Z,1.20
2019-05-22T14:33:04.881Z,1.20
2019-05-22T14:35:46.986Z,1.80
2019-05-22T14:38:01.732Z,1.83
2019-05-22T14:40:30.599Z,1.10
2019-05-22T14:42:58.041Z,1.67
2019-05-22T14:45:25.454Z,2.23
2019-05-22T14:47:53.768Z,4.53
2019-05-22T14:50:21.139Z,1.83
2019-05-22T14:52:48.716Z,3.57
2019-05-22T14:55:16.367Z,1.67
2019-05-22T14:57:44.253Z,4.47
2019-05-22T15:00:12.981Z,1.63
2019-05-22T15:02:40.317Z,1.10
2019-05-22T15:05:08.390Z,1.30
2019-05-22T15:07:35.881Z,1.03
2019-05-22T15:10:04.516Z,1.10
2019-05-22T15:12:31.857Z,0.93
2019-05-22T15:14:59.242Z,2.20
2019-05-22T15:17:32.290Z,2.00
2019-05-22T15:19:56.077Z,5.13
2019-05-22T15:22:23.726Z,1.73
2019-05-22T15:24:52.038Z,2.10
2019-05-22T15:27:19.397Z,1.50
2019-05-22T15:29:46.761Z,1.27
2019-05-22T15:32:15.765Z,4.10
2019-05-22T15:34:43.372Z,1.40
2019-05-22T15:37:13.773Z,1.10
2019-05-22T15:39:41.978Z,1.20
2019-05-22T15:42:10.816Z,1.13
2019-05-22T15:44:40.011Z,1.13
2019-05-22T15:47:07.337Z,1.17
2019-05-22T15:49:34.974Z,0.90
2019-05-22T15:52:04.590Z,1.00
2019-05-22T15:54:33.406Z,1.20
2019-05-22T15:57:01.083Z,1.20
2019-05-22T15:59:29.549Z,1.30
2019-05-22T16:01:57.212Z,1.53
2019-05-22T16:04:25.113Z,1.20
2019-05-22T16:06:52.641Z,1.90
2019-05-22T16:09:21.822Z,1.57
2019-05-22T16:11:50.801Z,0.80
2019-05-22T16:14:19.141Z,1.17
2019-05-22T16:16:47.952Z,2.13
2019-05-22T16:19:16.061Z,1.03
2019-05-22T16:21:45.232Z,2.70
2019-05-22T16:24:12.783Z,2.70
2019-05-22T16:26:41.053Z,0.80
2019-05-22T16:29:08.502Z,3.33
2019-05-22T16:31:36.907Z,1.20
2019-05-22T16:34:05.210Z,2.27
2019-05-22T16:36:32.931Z,1.40
2019-05-22T16:39:00.536Z,5.40
2019-05-22T16:41:29.452Z,1.00
2019-05-22T16:43:57.489Z,3.57
2019-05-22T16:46:25.497Z,3.90
2019-05-22T16:48:53.208Z,0.70
2019-05-22T16:51:22.243Z,1.00
2019-05-22T16:53:53.883Z,2.30
2019-05-22T16:56:22.567Z,1.20
2019-05-22T16:58:50.108Z,1.43
2019-05-22T17:01:18.422Z,1.53
2019-05-22T17:03:47.686Z,1.30
2019-05-22T17:06:14.995Z,0.80
2019-05-22T17:08:42.814Z,1.40
2019-05-22T17:11:11.630Z,1.10
2019-05-22T17:13:38.924Z,0.80
2019-05-22T17:16:06.836Z,0.97
2019-05-22T17:18:46.987Z,1.30
2019-05-22T17:21:05.202Z,1.23
2019-05-22T17:23:32.461Z,1.10
2019-05-22T17:25:59.798Z,0.90
2019-05-22T17:28:27.759Z,1.10
2019-05-22T17:30:56.562Z,1.50
2019-05-22T17:33:24.415Z,1.30
2019-05-22T17:35:52.568Z,1.20
2019-05-22T17:38:21.833Z,1.50
2019-05-22T17:40:49.437Z,1.23
2019-05-22T17:43:17.667Z,1.50
2019-05-22T17:45:45.869Z,1.23
2019-05-22T17:48:15.043Z,1.40
2019-05-22T17:50:43.354Z,1.50
2019-05-22T17:53:11.373Z,1.57
2019-05-22T17:55:39.297Z,1.60
2019-05-22T17:58:07.001Z,1.97
2019-05-22T18:00:41.843Z,2.63
2019-05-22T18:03:09.817Z,2.00
2019-05-22T18:05:37.182Z,2.70
2019-05-22T18:08:05.414Z,1.97
2019-05-22T18:10:39.896Z,2.43
2019-05-22T18:13:04.073Z,2.00
2019-05-22T18:15:31.368Z,4.90
2019-05-22T18:17:58.691Z,2.20
2019-05-22T18:20:41.421Z,2.20
2019-05-22T18:22:55.340Z,2.27
2019-05-22T18:25:22.611Z,2.07
2019-05-22T18:27:50.984Z,2.20
2019-05-22T18:30:18.386Z,1.97
2019-05-22T18:32:45.653Z,2.10
2019-05-22T18:35:14.236Z,2.40
2019-05-22T18:37:41.578Z,2.43
2019-05-22T18:40:09.717Z,2.13
2019-05-22T18:42:37.133Z,2.30
2019-05-22T18:45:05.745Z,3.50
2019-05-22T18:47:33.009Z,2.30
2019-05-22T18:50:00.319Z,1.70
2019-05-22T18:52:40.607Z,9.70
2019-05-22T18:54:56.780Z,2.53
2019-05-22T18:57:24.421Z,2.20
2019-05-22T18:59:54.565Z,1.90
2019-05-22T19:02:21.150Z,1.93
2019-05-22T19:04:48.505Z,1.60
2019-05-22T19:07:15.779Z,1.93
2019-05-22T19:09:43.225Z,5.53
2019-05-22T19:12:10.492Z,6.80
2019-05-22T19:14:38.109Z,1.80
2019-05-22T19:17:05.585Z,2.83
2019-05-22T19:19:33.321Z,2.50
2019-05-22T19:22:00.657Z,2.33
2019-05-22T19:24:28.238Z,3.40
2019-05-22T19:26:55.679Z,2.60
2019-05-22T19:29:23.226Z,1.93
2019-05-22T19:31:50.517Z,3.13
2019-05-22T19:34:17.850Z,5.40
2019-05-22T19:36:45.117Z,2.80
2019-05-22T19:39:12.425Z,2.90
2019-05-22T19:41:39.761Z,6.03
2019-05-22T19:44:07.505Z,2.70
2019-05-22T19:46:34.954Z,3.90
2019-05-22T19:49:02.765Z,3.13
2019-05-22T19:51:31.257Z,2.50
2019-05-22T19:53:58.617Z,3.30
2019-05-22T19:56:25.905Z,2.60
2019-05-22T19:58:53.347Z,2.67
2019-05-22T20:01:20.845Z,2.90
2019-05-22T20:03:48.282Z,3.33
2019-05-22T20:06:15.654Z,3.90
2019-05-22T20:08:43.417Z,3.00
2019-05-22T20:11:10.816Z,2.57
2019-05-22T20:13:38.442Z,3.03
2019-05-22T20:16:06.290Z,2.93
2019-05-22T20:18:33.921Z,3.03
2019-05-22T20:21:01.181Z,7.97
2019-05-22T20:23:36.222Z,5.23
2019-05-22T20:25:57.557Z,4.90
2019-05-22T20:28:25.760Z,5.57
2019-05-22T20:30:53.130Z,6.17
2019-05-22T20:33:20.457Z,2.80
2019-05-22T20:35:47.756Z,2.83
2019-05-22T20:38:15.169Z,2.70
2019-05-22T20:40:42.613Z,3.00
2019-05-22T20:43:10.531Z,2.63
2019-05-22T20:45:41.154Z,3.43
2019-05-22T20:48:11.956Z,3.80
2019-05-22T20:50:39.301Z,4.90
2019-05-22T20:53:08.200Z,3.43
2019-05-22T20:55:37.048Z,3.80
2019-05-22T20:58:05.949Z,3.13
2019-05-22T21:00:34.882Z,3.40
2019-05-22T21:03:02.620Z,2.93
2019-05-22T21:05:31.642Z,5.87
2019-05-22T21:08:01.136Z,3.00
2019-05-22T21:10:28.684Z,3.80
2019-05-22T21:12:56.782Z,3.37
2019-05-22T21:15:24.518Z,5.20
2019-05-22T21:17:53.528Z,4.03
2019-05-22T21:20:22.505Z,2.80
2019-05-22T21:22:49.917Z,2.60
2019-05-22T21:25:17.365Z,3.03
2019-05-22T21:27:44.630Z,2.63
2019-05-22T21:30:12.628Z,2.87
2019-05-22T21:32:40.182Z,2.87
2019-05-22T21:35:08.017Z,3.03
2019-05-22T21:37:36.121Z,2.80
2019-05-22T21:40:04.023Z,2.47
2019-05-22T21:42:31.557Z,4.93
2019-05-22T21:44:59.361Z,2.10
2019-05-22T21:47:27.508Z,3.33
2019-05-22T21:49:55.211Z,2.80
2019-05-22T21:52:22.712Z,2.53
2019-05-22T21:54:50.200Z,3.60
2019-05-22T21:57:18.401Z,4.77
2019-05-22T21:59:46.105Z,5.97
2019-05-22T22:02:16.648Z,3.43
2019-05-22T22:04:44.481Z,3.77
2019-05-22T22:07:12.182Z,4.50
2019-05-22T22:09:40.065Z,4.33
2019-05-22T22:12:08.063Z,3.50
2019-05-22T22:14:35.793Z,3.50
2019-05-22T22:17:03.701Z,4.90
2019-05-22T22:19:31.537Z,4.07
2019-05-22T22:22:00.050Z,3.43
2019-05-22T22:24:27.924Z,3.07
2019-05-22T22:26:56.728Z,3.87
2019-05-22T22:29:24.152Z,4.53
2019-05-22T22:31:51.795Z,4.07
2019-05-22T22:34:20.592Z,2.90
2019-05-22T22:36:48.537Z,3.23
2019-05-22T22:39:17.457Z,2.60
2019-05-22T22:41:46.087Z,3.70
2019-05-22T22:44:14.890Z,3.93
2019-05-22T22:47:02.614Z,2.37
2019-05-22T22:49:30.092Z,3.20
2019-05-22T22:51:58.702Z,2.27
2019-05-22T22:54:26.674Z,2.13
2019-05-22T22:56:54.447Z,4.77
2019-05-22T22:59:22.194Z,7.37
2019-05-22T23:01:52.484Z,6.53
2019-05-22T23:04:21.325Z,2.60
2019-05-22T23:06:48.601Z,2.40
2019-05-22T23:09:17.605Z,2.40
2019-05-22T23:11:45.652Z,1.90
2019-05-22T23:14:15.041Z,2.90
2019-05-22T23:16:42.625Z,2.27
2019-05-22T23:19:11.427Z,4.60
2019-05-22T23:21:39.829Z,2.50
2019-05-22T23:24:08.285Z,1.90
2019-05-22T23:26:36.336Z,2.30
2019-05-22T23:29:05.743Z,2.37
2019-05-22T23:31:33.013Z,2.30
2019-05-22T23:34:00.396Z,2.40
2019-05-22T23:36:28.234Z,4.40
2019-05-22T23:38:57.903Z,2.40
2019-05-22T23:41:26.230Z,2.83
2019-05-22T23:43:53.656Z,2.50
2019-05-22T23:46:22.648Z,3.33
2019-05-22T23:48:49.925Z,2.93
2019-05-22T23:51:18.633Z,2.50
2019-05-22T23:53:49.130Z,7.20
2019-05-22T23:56:17.234Z,3.00
2019-05-22T23:58:52.729Z,2.80
